Warrior Run, Pennsylvania
Current Conditions -  °F | °C
As of 9:54 AM on Saturday 25 Oct 2014 (Local Time) from KAVP Reporting Station
Overcast Overcast  
Wind Chill: 47°   Ceiling: 4800
Heat Index: 49°   Visibility: 10mi
Dew Point: 37°   Wind: 6mph
Humidity: 64%   Direction: 240°WSW
Pressure: 29.88"   Gusts: NA
Location:  41.1921°N, 75.9213°W
Report Text: KAVP 251354Z 24005KT 10SM OVC048 09/03 A2988 RMK AO2 SLP116 T00940028
Loading
Personal Weather Stations






























Interactive Weather Map
Tropical Storm Tracking
New forecast layout! Learn more

10-Day Weather Forecast

Advertisements
Track Severe Weather on mobile